createdAt,value
2018-08-23T00:01:35.314Z,95511.00
2018-08-23T00:04:12.783Z,95506.00
2018-08-23T00:06:52.274Z,95509.00
2018-08-23T00:09:22.975Z,95507.00
2018-08-23T00:11:53.856Z,95506.00
2018-08-23T00:14:24.546Z,95509.00
2018-08-23T00:16:56.369Z,95506.00
2018-08-23T00:19:27.095Z,95508.00
2018-08-23T00:21:57.955Z,95510.00
2018-08-23T00:24:28.662Z,95507.00
2018-08-23T00:27:00.340Z,95503.00
2018-08-23T00:29:32.335Z,95503.00
2018-08-23T00:32:04.691Z,95502.00
2018-08-23T00:34:37.657Z,95495.00
2018-08-23T00:37:09.090Z,95492.00
2018-08-23T00:39:39.806Z,95488.00
2018-08-23T00:42:12.097Z,95493.00
2018-08-23T00:45:01.440Z,95482.00
2018-08-23T00:47:34.370Z,95483.00
2018-08-23T00:50:05.196Z,95479.00
2018-08-23T00:52:44.058Z,95482.00
2018-08-23T00:55:31.428Z,95474.00
2018-08-23T00:58:02.161Z,95473.00
2018-08-23T01:00:32.858Z,95474.00
2018-08-23T01:03:04.898Z,95480.00
2018-08-23T01:05:36.414Z,95474.00
2018-08-23T01:08:08.423Z,95467.00
2018-08-23T01:10:41.056Z,95463.00
2018-08-23T01:13:11.785Z,95470.00
2018-08-23T01:15:45.070Z,95463.00
2018-08-23T01:18:17.571Z,95468.00
2018-08-23T01:20:49.706Z,95464.00
2018-08-23T01:23:20.719Z,95462.00
2018-08-23T01:25:52.090Z,95461.00
2018-08-23T01:28:22.863Z,95463.00
2018-08-23T01:30:53.591Z,95455.00
2018-08-23T01:33:24.341Z,95456.00
2018-08-23T01:35:54.978Z,95454.00
2018-08-23T01:38:25.698Z,95458.00
2018-08-23T01:41:00.419Z,95453.00
2018-08-23T01:43:31.288Z,95447.00
2018-08-23T01:46:01.999Z,95447.00
2018-08-23T01:48:33.058Z,95440.00
2018-08-23T01:51:03.750Z,95444.00
2018-08-23T01:53:38.798Z,95440.00
2018-08-23T01:56:09.842Z,95435.00
2018-08-23T01:58:40.639Z,95430.00
2018-08-23T02:01:16.119Z,95432.00
2018-08-23T02:03:47.078Z,95427.00
2018-08-23T02:06:17.779Z,95427.00
2018-08-23T02:08:48.598Z,95430.00
2018-08-23T02:11:19.278Z,95427.00
2018-08-23T02:13:50.019Z,95422.00
2018-08-23T02:16:20.752Z,95424.00
2018-08-23T02:18:51.782Z,95429.00
2018-08-23T02:21:22.471Z,95425.00
2018-08-23T02:23:54.158Z,95427.00
2018-08-23T02:26:24.971Z,95423.00
2018-08-23T02:28:55.687Z,95425.00
2018-08-23T02:31:26.379Z,95422.00
2018-08-23T02:33:57.091Z,95425.00
2018-08-23T02:36:27.820Z,95429.00
2018-08-23T02:39:00.879Z,95428.00
2018-08-23T02:41:32.143Z,95429.00
2018-08-23T02:44:02.860Z,95431.00
2018-08-23T02:46:34.122Z,95428.00
2018-08-23T02:49:04.904Z,95428.00
2018-08-23T02:51:42.445Z,95427.00
2018-08-23T02:54:15.893Z,95427.00
2018-08-23T02:56:50.334Z,95425.00
2018-08-23T02:59:21.322Z,95427.00
2018-08-23T03:01:52.491Z,95427.00
2018-08-23T03:04:25.469Z,95423.00
2018-08-23T03:06:58.999Z,95426.00
2018-08-23T03:09:39.179Z,95422.00
2018-08-23T03:12:11.347Z,95425.00
2018-08-23T03:14:42.530Z,95425.00
2018-08-23T03:17:25.098Z,95426.00
2018-08-23T03:20:02.838Z,95427.00
2018-08-23T03:22:34.538Z,95429.00
2018-08-23T03:25:06.979Z,95425.00
2018-08-23T03:27:37.875Z,95428.00
2018-08-23T03:30:11.982Z,95430.00
2018-08-23T03:32:42.780Z,95429.00
2018-08-23T03:35:13.669Z,95430.00
2018-08-23T03:37:44.418Z,95429.00
2018-08-23T03:40:16.263Z,95422.00
2018-08-23T03:42:47.096Z,95428.00
2018-08-23T03:45:23.062Z,95426.00
2018-08-23T03:47:55.426Z,95428.00
2018-08-23T03:50:26.293Z,95433.00
2018-08-23T03:52:57.093Z,95433.00
2018-08-23T03:55:27.990Z,95430.00
2018-08-23T03:58:01.790Z,95437.00
2018-08-23T04:00:37.713Z,95434.00
2018-08-23T04:03:10.639Z,95440.00
2018-08-23T04:05:41.402Z,95435.00
2018-08-23T04:08:12.150Z,95435.00
2018-08-23T04:10:43.579Z,95435.00
2018-08-23T04:13:14.271Z,95434.00
2018-08-23T04:15:45.567Z,95437.00
2018-08-23T04:18:17.898Z,95433.00
2018-08-23T04:20:56.407Z,95433.00
2018-08-23T04:23:27.160Z,95435.00
2018-08-23T04:25:57.884Z,95433.00
2018-08-23T04:28:28.716Z,95434.00
2018-08-23T04:30:59.718Z,95431.00
2018-08-23T04:33:30.714Z,95442.00
2018-08-23T04:36:01.482Z,95442.00
2018-08-23T04:38:33.270Z,95435.00
2018-08-23T04:41:08.451Z,95435.00
2018-08-23T04:43:39.346Z,95433.00
2018-08-23T04:46:16.826Z,95432.00
2018-08-23T04:48:48.196Z,95433.00
2018-08-23T04:51:19.117Z,95432.00
2018-08-23T04:53:50.072Z,95429.00
2018-08-23T04:56:20.946Z,95427.00
2018-08-23T04:58:51.813Z,95431.00
2018-08-23T05:01:22.752Z,95420.00
2018-08-23T05:03:53.844Z,95428.00
2018-08-23T05:06:24.957Z,95425.00
2018-08-23T05:08:55.799Z,95430.00
2018-08-23T05:11:26.693Z,95430.00
2018-08-23T05:13:57.541Z,95425.00
2018-08-23T05:16:28.439Z,95423.00
2018-08-23T05:18:59.210Z,95421.00
2018-08-23T05:21:30.042Z,95419.00
2018-08-23T05:24:05.568Z,95422.00
2018-08-23T05:26:36.478Z,95424.00
2018-08-23T05:29:09.290Z,95424.00
2018-08-23T05:31:40.381Z,95419.00
2018-08-23T05:34:11.295Z,95417.00
2018-08-23T05:36:42.039Z,95411.00
2018-08-23T05:39:12.739Z,95409.00
2018-08-23T05:41:43.499Z,95406.00
2018-08-23T05:44:20.222Z,95403.00
2018-08-23T05:46:54.475Z,95406.00
2018-08-23T05:49:26.241Z,95411.00
2018-08-23T05:51:59.831Z,95408.00
2018-08-23T05:54:30.562Z,95415.00
2018-08-23T05:57:01.542Z,95409.00
2018-08-23T05:59:32.459Z,95406.00
2018-08-23T06:02:03.212Z,95410.00
2018-08-23T06:04:43.459Z,95411.00
2018-08-23T06:07:14.239Z,95414.00
2018-08-23T06:09:45.012Z,95414.00
2018-08-23T06:12:15.971Z,95416.00
2018-08-23T06:14:47.199Z,95418.00
2018-08-23T06:17:18.060Z,95420.00
2018-08-23T06:19:49.126Z,95421.00
2018-08-23T06:22:20.139Z,95418.00
2018-08-23T06:24:50.917Z,95418.00
2018-08-23T06:27:21.936Z,95419.00
2018-08-23T06:29:52.833Z,95416.00
2018-08-23T06:32:23.874Z,95410.00
2018-08-23T06:34:54.899Z,95417.00
2018-08-23T06:37:25.807Z,95417.00
2018-08-23T06:39:56.719Z,95416.00
2018-08-23T06:42:59.151Z,95409.00
2018-08-23T06:45:30.211Z,95398.00
2018-08-23T06:48:02.523Z,95396.00
2018-08-23T06:50:33.499Z,95391.00
2018-08-23T06:53:04.339Z,95397.00
2018-08-23T06:55:36.519Z,95398.00
2018-08-23T06:58:07.491Z,95395.00
2018-08-23T07:00:38.319Z,95392.00
2018-08-23T07:03:09.283Z,95386.00
2018-08-23T07:05:40.239Z,95391.00
2018-08-23T07:08:11.139Z,95392.00
2018-08-23T07:10:42.089Z,95386.00
2018-08-23T07:13:12.972Z,95390.00
2018-08-23T07:15:47.833Z,95384.00
2018-08-23T07:18:21.795Z,95384.00
2018-08-23T07:20:52.687Z,95382.00
2018-08-23T07:23:34.519Z,95381.00
2018-08-23T07:26:07.472Z,95379.00
2018-08-23T07:28:38.916Z,95378.00
2018-08-23T07:31:09.841Z,95380.00
2018-08-23T07:33:41.773Z,95377.00
2018-08-23T07:36:31.242Z,95379.00
2018-08-23T07:39:02.165Z,95381.00
2018-08-23T07:41:33.159Z,95376.00
2018-08-23T07:44:04.115Z,95377.00
2018-08-23T07:46:34.939Z,95373.00
2018-08-23T07:49:05.777Z,95367.00
2018-08-23T07:51:36.608Z,95371.00
2018-08-23T07:54:11.562Z,95369.00
2018-08-23T07:56:42.394Z,95361.00
2018-08-23T07:59:13.911Z,95363.00
2018-08-23T08:01:44.759Z,95363.00
2018-08-23T08:04:15.652Z,95360.00
2018-08-23T08:06:46.583Z,95366.00
2018-08-23T08:09:26.679Z,95364.00
2018-08-23T08:12:02.093Z,95359.00
2018-08-23T08:14:40.056Z,95354.00
2018-08-23T08:17:19.459Z,95355.00
2018-08-23T08:19:58.018Z,95351.00
2018-08-23T08:22:28.894Z,95351.00
2018-08-23T08:25:09.490Z,95355.00
2018-08-23T08:27:41.027Z,95355.00
2018-08-23T08:30:14.474Z,95351.00
2018-08-23T08:32:45.967Z,95346.00
2018-08-23T08:35:21.116Z,95347.00
2018-08-23T08:37:52.056Z,95345.00
2018-08-23T08:40:22.992Z,95343.00
2018-08-23T08:42:53.946Z,95343.00
2018-08-23T08:45:28.341Z,95345.00
2018-08-23T08:48:13.955Z,95345.00
2018-08-23T08:50:50.077Z,95337.00
2018-08-23T08:53:20.903Z,95337.00
2018-08-23T08:55:51.753Z,95330.00
2018-08-23T08:58:22.605Z,95324.00
2018-08-23T09:00:54.045Z,95327.00
2018-08-23T09:03:25.137Z,95319.00
2018-08-23T09:05:56.133Z,95317.00
2018-08-23T09:08:26.941Z,95313.00
2018-08-23T09:10:58.016Z,95311.00
2018-08-23T09:13:34.002Z,95311.00
2018-08-23T09:16:07.573Z,95303.00
2018-08-23T09:18:40.970Z,95309.00
2018-08-23T09:21:13.741Z,95308.00
2018-08-23T09:23:44.541Z,95301.00
2018-08-23T09:26:15.400Z,95298.00
2018-08-23T09:28:46.442Z,95294.00
2018-08-23T09:31:17.416Z,95287.00
2018-08-23T09:33:48.297Z,95280.00
2018-08-23T09:36:19.213Z,95272.00
2018-08-23T09:38:50.021Z,95275.00
2018-08-23T09:41:21.087Z,95268.00
2018-08-23T09:43:51.964Z,95275.00
2018-08-23T09:46:22.862Z,95270.00
2018-08-23T09:48:53.678Z,95263.00
2018-08-23T09:51:30.591Z,95259.00
2018-08-23T09:54:01.501Z,95251.00
2018-08-23T09:56:32.335Z,95255.00
2018-08-23T09:59:03.087Z,95245.00
2018-08-23T10:01:38.993Z,95232.00
2018-08-23T10:04:14.738Z,95234.00
2018-08-23T10:06:50.631Z,95233.00
2018-08-23T10:09:23.577Z,95229.00
2018-08-23T10:11:59.513Z,95223.00
2018-08-23T10:14:35.473Z,95221.00
2018-08-23T10:17:11.453Z,95219.00
2018-08-23T10:19:47.181Z,95211.00
2018-08-23T10:22:22.957Z,95205.00
2018-08-23T10:24:53.721Z,95196.00
2018-08-23T10:27:25.001Z,95199.00
2018-08-23T10:29:55.913Z,95198.00
2018-08-23T10:32:26.778Z,95189.00
2018-08-23T10:34:58.145Z,95187.00
2018-08-23T10:37:29.103Z,95180.00
2018-08-23T10:39:59.881Z,95176.00
2018-08-23T10:42:30.719Z,95171.00
2018-08-23T10:45:01.769Z,95169.00
2018-08-23T10:47:37.613Z,95159.00
2018-08-23T10:50:08.485Z,95154.00
2018-08-23T10:52:39.467Z,95151.00
2018-08-23T10:55:10.230Z,95145.00
2018-08-23T10:57:41.139Z,95136.00
2018-08-23T11:00:11.950Z,95133.00
2018-08-23T11:02:42.756Z,95133.00
2018-08-23T11:05:13.694Z,95130.00
2018-08-23T11:07:49.615Z,95122.00
2018-08-23T11:10:25.537Z,95120.00
2018-08-23T11:13:01.283Z,95114.00
2018-08-23T11:15:31.999Z,95111.00
2018-08-23T11:18:07.843Z,95104.00
2018-08-23T11:20:43.678Z,95104.00
2018-08-23T11:23:18.720Z,95104.00
2018-08-23T11:25:49.609Z,95094.00
2018-08-23T11:28:24.818Z,95097.00
2018-08-23T11:30:59.595Z,95097.00
2018-08-23T11:33:30.482Z,95091.00
2018-08-23T11:36:01.577Z,95089.00
2018-08-23T11:38:32.402Z,95082.00
2018-08-23T11:41:03.492Z,95074.00
2018-08-23T11:43:34.262Z,95074.00
2018-08-23T11:46:10.055Z,95069.00
2018-08-23T11:48:42.233Z,95064.00
2018-08-23T11:51:13.781Z,95064.00
2018-08-23T11:53:45.329Z,95061.00
2018-08-23T11:56:16.095Z,95057.00
2018-08-23T11:58:47.051Z,95051.00
2018-08-23T12:01:18.377Z,95051.00
2018-08-23T12:03:49.277Z,95048.00
2018-08-23T12:06:20.041Z,95049.00
2018-08-23T12:08:50.806Z,95054.00
2018-08-23T12:11:21.674Z,95049.00
2018-08-23T12:13:52.578Z,95047.00
2018-08-23T12:16:23.404Z,95045.00
2018-08-23T12:18:54.301Z,95035.00
2018-08-23T12:21:25.179Z,95039.00
2018-08-23T12:23:56.071Z,95033.00
2018-08-23T12:26:27.098Z,95035.00
2018-08-23T12:29:02.933Z,95036.00
2018-08-23T12:31:36.034Z,95037.00
2018-08-23T12:34:10.236Z,95038.00
2018-08-23T12:36:46.206Z,95033.00
2018-08-23T12:39:22.353Z,95032.00
2018-08-23T12:41:58.482Z,95023.00
2018-08-23T12:44:29.440Z,95014.00
2018-08-23T12:47:05.160Z,95016.00
2018-08-23T12:49:36.329Z,95008.00
2018-08-23T12:52:07.082Z,95005.00
2018-08-23T12:54:37.960Z,94999.00
2018-08-23T12:57:08.846Z,94996.00
2018-08-23T12:59:39.730Z,95002.00
2018-08-23T13:02:10.551Z,95004.00
2018-08-23T13:04:41.541Z,95006.00
2018-08-23T13:07:12.729Z,95004.00
2018-08-23T13:09:44.257Z,94996.00
2018-08-23T13:12:16.221Z,94987.00
2018-08-23T13:14:47.136Z,94978.00
2018-08-23T13:17:20.398Z,94977.00
2018-08-23T13:19:51.305Z,94969.00
2018-08-23T13:22:27.194Z,94959.00
2018-08-23T13:25:03.219Z,94960.00
2018-08-23T13:27:34.463Z,94954.00
2018-08-23T13:30:05.797Z,94952.00
2018-08-23T13:32:36.644Z,94956.00
2018-08-23T13:35:07.868Z,94951.00
2018-08-23T13:37:38.833Z,94949.00
2018-08-23T13:40:15.000Z,94940.00
2018-08-23T13:42:46.601Z,94939.00
2018-08-23T13:45:18.399Z,94938.00
2018-08-23T13:47:49.263Z,94945.00
2018-08-23T13:50:20.416Z,94954.00
2018-08-23T13:52:51.283Z,94967.00
2018-08-23T13:55:22.143Z,94980.00
2018-08-23T13:57:53.136Z,94984.00
2018-08-23T14:00:29.004Z,95003.00
2018-08-23T14:03:00.635Z,94989.00
2018-08-23T14:05:32.177Z,94982.00
2018-08-23T14:08:03.456Z,94996.00
2018-08-23T14:10:34.871Z,94989.00
2018-08-23T14:13:06.047Z,95002.00
2018-08-23T14:15:42.026Z,95007.00
2018-08-23T14:18:12.825Z,95017.00
2018-08-23T14:20:43.711Z,95022.00
2018-08-23T14:23:14.585Z,95032.00
2018-08-23T14:25:45.624Z,95037.00
2018-08-23T14:28:16.706Z,95040.00
2018-08-23T14:30:48.180Z,95039.00
2018-08-23T14:33:19.286Z,95041.00
2018-08-23T14:35:51.296Z,95046.00
2018-08-23T14:38:22.362Z,95061.00
2018-08-23T14:40:55.318Z,95067.00
2018-08-23T14:43:26.219Z,95069.00
2018-08-23T14:46:02.164Z,95081.00
2018-08-23T14:48:33.096Z,95117.00
2018-08-23T14:51:03.931Z,95134.00
2018-08-23T14:53:34.787Z,95130.00
2018-08-23T14:56:11.224Z,95131.00
2018-08-23T14:58:42.009Z,95144.00
2018-08-23T15:01:12.908Z,95158.00
2018-08-23T15:03:43.783Z,95169.00
2018-08-23T15:06:14.653Z,95165.00
2018-08-23T15:08:45.922Z,95154.00
2018-08-23T15:11:16.766Z,95153.00
2018-08-23T15:13:47.663Z,95160.00
2018-08-23T15:16:18.546Z,95150.00
2018-08-23T15:18:49.715Z,95157.00
2018-08-23T15:21:20.603Z,95152.00
2018-08-23T15:23:51.403Z,95166.00
2018-08-23T15:26:22.417Z,95169.00
2018-08-23T15:28:53.426Z,95160.00
2018-08-23T15:31:24.373Z,95153.00
2018-08-23T15:33:55.564Z,95138.00
2018-08-23T15:36:26.491Z,95132.00
2018-08-23T15:38:57.431Z,95131.00
2018-08-23T15:41:28.220Z,95120.00
2018-08-23T15:43:58.963Z,95118.00
2018-08-23T15:46:34.833Z,95116.00
2018-08-23T15:49:05.686Z,95122.00
2018-08-23T15:51:37.256Z,95125.00
2018-08-23T15:54:08.542Z,95130.00
2018-08-23T15:56:40.252Z,95136.00
2018-08-23T15:59:11.295Z,95143.00
2018-08-23T16:01:42.445Z,95155.00
2018-08-23T16:04:13.357Z,95165.00
2018-08-23T16:06:44.457Z,95159.00
2018-08-23T16:09:15.402Z,95164.00
2018-08-23T16:11:46.248Z,95157.00
2018-08-23T16:14:17.008Z,95159.00
2018-08-23T16:16:52.857Z,95162.00
2018-08-23T16:19:29.564Z,95168.00
2018-08-23T16:22:00.478Z,95170.00
2018-08-23T16:24:31.620Z,95177.00
2018-08-23T16:27:03.572Z,95183.00
2018-08-23T16:29:34.998Z,95186.00
2018-08-23T16:32:06.705Z,95183.00
2018-08-23T16:34:37.551Z,95188.00
2018-08-23T16:37:09.307Z,95197.00
2018-08-23T16:39:40.097Z,95195.00
2018-08-23T16:42:11.668Z,95192.00
2018-08-23T16:44:42.388Z,95193.00
2018-08-23T16:47:14.483Z,95195.00
2018-08-23T16:49:47.955Z,95193.00
2018-08-23T16:52:19.406Z,95203.00
2018-08-23T16:54:50.512Z,95203.00
2018-08-23T16:57:21.492Z,95202.00
2018-08-23T16:59:52.865Z,95208.00
2018-08-23T17:02:25.904Z,95212.00
2018-08-23T17:04:56.837Z,95211.00
2018-08-23T17:07:27.815Z,95216.00
2018-08-23T17:09:58.969Z,95219.00
2018-08-23T17:12:30.081Z,95223.00
2018-08-23T17:15:03.734Z,95221.00
2018-08-23T17:17:37.216Z,95229.00
2018-08-23T17:20:11.579Z,95227.00
2018-08-23T17:22:42.557Z,95224.00
2018-08-23T17:25:13.728Z,95229.00
2018-08-23T17:27:44.516Z,95224.00
2018-08-23T17:30:19.657Z,95226.00
2018-08-23T17:32:50.522Z,95237.00
2018-08-23T17:35:22.278Z,95243.00
2018-08-23T17:37:54.366Z,95247.00
2018-08-23T17:40:26.376Z,95249.00
2018-08-23T17:42:57.366Z,95252.00
2018-08-23T17:45:28.483Z,95246.00
2018-08-23T17:47:59.623Z,95250.00
2018-08-23T17:50:30.414Z,95254.00
2018-08-23T17:53:01.941Z,95251.00
2018-08-23T17:55:32.744Z,95254.00
2018-08-23T17:58:03.713Z,95261.00
2018-08-23T18:00:34.981Z,95268.00
2018-08-23T18:03:05.929Z,95269.00
2018-08-23T18:05:37.248Z,95281.00
2018-08-23T18:08:08.922Z,95282.00
2018-08-23T18:10:39.929Z,95287.00
2018-08-23T18:13:11.146Z,95286.00
2018-08-23T18:15:47.460Z,95286.00
2018-08-23T18:18:18.605Z,95286.00
2018-08-23T18:20:49.996Z,95283.00
2018-08-23T18:23:20.871Z,95290.00
2018-08-23T18:25:51.850Z,95289.00
2018-08-23T18:28:22.768Z,95291.00
2018-08-23T18:30:53.724Z,95291.00
2018-08-23T18:33:25.249Z,95298.00
2018-08-23T18:35:56.439Z,95305.00
2018-08-23T18:38:31.076Z,95306.00
2018-08-23T18:41:02.152Z,95312.00
2018-08-23T18:43:33.542Z,95305.00
2018-08-23T18:46:04.717Z,95299.00
2018-08-23T18:48:36.129Z,95297.00
2018-08-23T18:51:07.644Z,95294.00
2018-08-23T18:53:39.414Z,95295.00
2018-08-23T18:56:10.397Z,95300.00
2018-08-23T18:58:42.194Z,95303.00
2018-08-23T19:01:13.993Z,95305.00
2018-08-23T19:03:44.782Z,95303.00
2018-08-23T19:06:16.708Z,95300.00
2018-08-23T19:08:48.280Z,95296.00
2018-08-23T19:11:19.044Z,95293.00
2018-08-23T19:13:50.339Z,95293.00
2018-08-23T19:16:25.956Z,95295.00
2018-08-23T19:18:57.359Z,95290.00
2018-08-23T19:21:28.236Z,95295.00
2018-08-23T19:23:59.546Z,95297.00
2018-08-23T19:26:30.360Z,95306.00
2018-08-23T19:29:01.663Z,95309.00
2018-08-23T19:31:32.881Z,95317.00
2018-08-23T19:34:04.667Z,95312.00
2018-08-23T19:36:36.059Z,95318.00
2018-08-23T19:39:18.584Z,95316.00
2018-08-23T19:41:49.995Z,95310.00
2018-08-23T19:44:21.563Z,95314.00
2018-08-23T19:46:57.853Z,95310.00
2018-08-23T19:49:34.099Z,95311.00
2018-08-23T19:52:05.795Z,95310.00
2018-08-23T19:54:37.349Z,95307.00
2018-08-23T19:57:09.087Z,95306.00
2018-08-23T19:59:40.110Z,95308.00
2018-08-23T20:02:12.826Z,95311.00
2018-08-23T20:04:44.395Z,95309.00
2018-08-23T20:07:15.885Z,95320.00
2018-08-23T20:09:47.201Z,95323.00
2018-08-23T20:12:28.190Z,95321.00
2018-08-23T20:15:00.464Z,95316.00
2018-08-23T20:17:31.826Z,95312.00
2018-08-23T20:20:02.767Z,95314.00
2018-08-23T20:22:33.575Z,95319.00
2018-08-23T20:25:05.053Z,95316.00
2018-08-23T20:27:36.427Z,95319.00
2018-08-23T20:30:08.103Z,95318.00
2018-08-23T20:32:38.989Z,95322.00
2018-08-23T20:35:10.163Z,95312.00
2018-08-23T20:37:41.211Z,95310.00
2018-08-23T20:40:12.372Z,95308.00
2018-08-23T20:42:43.324Z,95309.00
2018-08-23T20:45:14.588Z,95303.00
2018-08-23T20:47:45.684Z,95304.00
2018-08-23T20:50:17.039Z,95302.00
2018-08-23T20:52:48.137Z,95299.00
2018-08-23T20:55:19.123Z,95304.00
2018-08-23T20:57:50.237Z,95304.00
2018-08-23T21:00:21.070Z,95305.00
2018-08-23T21:02:51.923Z,95299.00
2018-08-23T21:05:22.755Z,95288.00
2018-08-23T21:07:53.602Z,95295.00
2018-08-23T21:10:25.539Z,95296.00
2018-08-23T21:12:56.394Z,95287.00
2018-08-23T21:15:27.767Z,95289.00
2018-08-23T21:17:58.632Z,95280.00
2018-08-23T21:20:29.614Z,95277.00
2018-08-23T21:23:00.357Z,95277.00
2018-08-23T21:25:31.139Z,95275.00
2018-08-23T21:28:02.443Z,95269.00
2018-08-23T21:30:33.244Z,95266.00
2018-08-23T21:33:04.396Z,95259.00
2018-08-23T21:35:35.228Z,95253.00
2018-08-23T21:38:06.004Z,95249.00
2018-08-23T21:40:36.907Z,95254.00
2018-08-23T21:43:07.692Z,95252.00
2018-08-23T21:45:38.463Z,95248.00
2018-08-23T21:48:09.372Z,95247.00
2018-08-23T21:50:40.178Z,95246.00
2018-08-23T21:53:11.132Z,95244.00
2018-08-23T21:55:41.923Z,95241.00
2018-08-23T21:58:12.711Z,95232.00
2018-08-23T22:00:48.723Z,95232.00
2018-08-23T22:03:19.463Z,95228.00
2018-08-23T22:05:50.323Z,95231.00
2018-08-23T22:08:21.043Z,95220.00
2018-08-23T22:10:51.823Z,95214.00
2018-08-23T22:13:22.598Z,95215.00
2018-08-23T22:15:53.280Z,95210.00
2018-08-23T22:18:24.023Z,95208.00
2018-08-23T22:20:54.736Z,95210.00
2018-08-23T22:23:25.585Z,95206.00
2018-08-23T22:25:56.482Z,95206.00
2018-08-23T22:28:27.229Z,95204.00
2018-08-23T22:30:58.067Z,95209.00
2018-08-23T22:33:28.906Z,95206.00
2018-08-23T22:35:59.804Z,95209.00
2018-08-23T22:38:30.637Z,95205.00
2018-08-23T22:41:01.503Z,95202.00
2018-08-23T22:43:32.310Z,95208.00
2018-08-23T22:46:03.064Z,95216.00
2018-08-23T22:48:33.806Z,95211.00
2018-08-23T22:51:04.566Z,95208.00
2018-08-23T22:53:35.530Z,95208.00
2018-08-23T22:56:07.003Z,95208.00
2018-08-23T22:58:37.734Z,95209.00
2018-08-23T23:01:08.513Z,95206.00
2018-08-23T23:03:50.946Z,95208.00
2018-08-23T23:06:21.663Z,95212.00
2018-08-23T23:08:52.462Z,95209.00
2018-08-23T23:11:23.182Z,95207.00
2018-08-23T23:13:53.890Z,95202.00
2018-08-23T23:16:25.156Z,95198.00
2018-08-23T23:18:55.725Z,95204.00
2018-08-23T23:21:26.471Z,95194.00
2018-08-23T23:23:57.199Z,95194.00
2018-08-23T23:26:27.968Z,95193.00
2018-08-23T23:28:58.706Z,95193.00
2018-08-23T23:31:29.445Z,95197.00
2018-08-23T23:34:00.166Z,95185.00
2018-08-23T23:36:30.923Z,95184.00
2018-08-23T23:39:01.613Z,95188.00
2018-08-23T23:41:32.322Z,95183.00
2018-08-23T23:44:03.003Z,95186.00
2018-08-23T23:46:33.754Z,95183.00
2018-08-23T23:49:04.644Z,95179.00
2018-08-23T23:51:35.364Z,95176.00
2018-08-23T23:54:06.175Z,95174.00
2018-08-23T23:56:36.891Z,95175.00
2018-08-23T23:59:08.074Z,95170.00
